sensor_id;sensor_type;location;lat;lon;timestamp;P1;durP1;ratioP1;P2;durP2;ratioP2
1795;SDS011;895;48.230;11.678;2022-09-06T00:01:10;5.13;;;4.70;;
1795;SDS011;895;48.230;11.678;2022-09-06T00:03:38;6.40;;;5.90;;
1795;SDS011;895;48.230;11.678;2022-09-06T00:06:06;5.00;;;4.60;;
1795;SDS011;895;48.230;11.678;2022-09-06T00:08:34;5.10;;;4.70;;
1795;SDS011;895;48.230;11.678;2022-09-06T00:11:00;5.40;;;5.10;;
1795;SDS011;895;48.230;11.678;2022-09-06T00:13:27;6.10;;;5.03;;
1795;SDS011;895;48.230;11.678;2022-09-06T00:15:54;5.90;;;5.30;;
1795;SDS011;895;48.230;11.678;2022-09-06T00:18:22;9.10;;;5.67;;
1795;SDS011;895;48.230;11.678;2022-09-06T00:20:49;4.70;;;4.40;;
1795;SDS011;895;48.230;11.678;2022-09-06T00:23:15;7.03;;;6.30;;
1795;SDS011;895;48.230;11.678;2022-09-06T00:25:42;6.10;;;5.60;;
1795;SDS011;895;48.230;11.678;2022-09-06T00:28:09;6.00;;;5.50;;
1795;SDS011;895;48.230;11.678;2022-09-06T00:30:36;7.03;;;6.40;;
1795;SDS011;895;48.230;11.678;2022-09-06T00:33:03;6.20;;;5.73;;
1795;SDS011;895;48.230;11.678;2022-09-06T00:35:31;6.10;;;5.70;;
1795;SDS011;895;48.230;11.678;2022-09-06T00:37:57;6.70;;;6.20;;
1795;SDS011;895;48.230;11.678;2022-09-06T00:40:25;7.60;;;5.50;;
1795;SDS011;895;48.230;11.678;2022-09-06T00:42:53;6.60;;;6.10;;
1795;SDS011;895;48.230;11.678;2022-09-06T00:45:20;6.13;;;5.77;;
1795;SDS011;895;48.230;11.678;2022-09-06T00:47:48;9.27;;;8.37;;
1795;SDS011;895;48.230;11.678;2022-09-06T00:50:15;6.27;;;5.87;;
1795;SDS011;895;48.230;11.678;2022-09-06T00:52:45;7.27;;;6.57;;
1795;SDS011;895;48.230;11.678;2022-09-06T00:55:15;6.70;;;6.20;;
1795;SDS011;895;48.230;11.678;2022-09-06T00:57:43;6.73;;;6.10;;
1795;SDS011;895;48.230;11.678;2022-09-06T01:00:10;6.80;;;6.30;;
1795;SDS011;895;48.230;11.678;2022-09-06T01:02:40;6.37;;;5.87;;
1795;SDS011;895;48.230;11.678;2022-09-06T01:05:07;5.77;;;5.37;;
1795;SDS011;895;48.230;11.678;2022-09-06T01:07:39;6.27;;;5.43;;
1795;SDS011;895;48.230;11.678;2022-09-06T01:13:11;6.00;;;5.40;;
1795;SDS011;895;48.230;11.678;2022-09-06T01:15:49;7.17;;;5.77;;
1795;SDS011;895;48.230;11.678;2022-09-06T01:18:27;6.03;;;5.53;;
1795;SDS011;895;48.230;11.678;2022-09-06T01:21:10;5.63;;;5.13;;
1795;SDS011;895;48.230;11.678;2022-09-06T01:23:54;6.97;;;5.97;;
1795;SDS011;895;48.230;11.678;2022-09-06T01:29:48;7.40;;;6.80;;
1795;SDS011;895;48.230;11.678;2022-09-06T01:32:19;7.30;;;6.70;;
1795;SDS011;895;48.230;11.678;2022-09-06T01:34:56;6.03;;;5.27;;
1795;SDS011;895;48.230;11.678;2022-09-06T01:37:27;7.30;;;6.57;;
1795;SDS011;895;48.230;11.678;2022-09-06T01:39:54;6.53;;;6.03;;
1795;SDS011;895;48.230;11.678;2022-09-06T01:42:22;5.53;;;5.00;;
1795;SDS011;895;48.230;11.678;2022-09-06T01:44:53;5.97;;;5.43;;
1795;SDS011;895;48.230;11.678;2022-09-06T01:47:28;6.73;;;6.10;;
1795;SDS011;895;48.230;11.678;2022-09-06T01:53:01;6.60;;;6.00;;
1795;SDS011;895;48.230;11.678;2022-09-06T01:55:38;7.10;;;6.60;;
1795;SDS011;895;48.230;11.678;2022-09-06T01:58:21;6.10;;;5.60;;
1795;SDS011;895;48.230;11.678;2022-09-06T02:01:03;6.53;;;6.03;;
1795;SDS011;895;48.230;11.678;2022-09-06T02:03:36;5.80;;;5.40;;
1795;SDS011;895;48.230;11.678;2022-09-06T02:06:07;6.77;;;6.17;;
1795;SDS011;895;48.230;11.678;2022-09-06T02:08:40;6.53;;;6.00;;
1795;SDS011;895;48.230;11.678;2022-09-06T02:11:09;5.77;;;5.37;;
1795;SDS011;895;48.230;11.678;2022-09-06T02:13:45;7.60;;;5.77;;
1795;SDS011;895;48.230;11.678;2022-09-06T02:16:18;5.93;;;5.43;;
1795;SDS011;895;48.230;11.678;2022-09-06T02:18:49;6.37;;;5.87;;
1795;SDS011;895;48.230;11.678;2022-09-06T02:21:19;6.20;;;5.80;;
1795;SDS011;895;48.230;11.678;2022-09-06T02:23:50;7.13;;;6.53;;
1795;SDS011;895;48.230;11.678;2022-09-06T02:26:19;6.17;;;5.73;;
1795;SDS011;895;48.230;11.678;2022-09-06T02:28:49;10.10;;;6.07;;
1795;SDS011;895;48.230;11.678;2022-09-06T02:31:18;6.90;;;6.30;;
1795;SDS011;895;48.230;11.678;2022-09-06T02:33:48;6.07;;;5.67;;
1795;SDS011;895;48.230;11.678;2022-09-06T02:36:16;6.10;;;5.70;;
1795;SDS011;895;48.230;11.678;2022-09-06T02:38:44;6.10;;;5.70;;
1795;SDS011;895;48.230;11.678;2022-09-06T02:41:11;6.93;;;6.53;;
1795;SDS011;895;48.230;11.678;2022-09-06T02:43:40;6.80;;;6.30;;
1795;SDS011;895;48.230;11.678;2022-09-06T02:46:07;7.57;;;6.83;;
1795;SDS011;895;48.230;11.678;2022-09-06T02:48:35;7.00;;;6.50;;
1795;SDS011;895;48.230;11.678;2022-09-06T02:51:02;7.60;;;7.00;;
1795;SDS011;895;48.230;11.678;2022-09-06T02:53:30;5.77;;;5.20;;
1795;SDS011;895;48.230;11.678;2022-09-06T02:55:57;7.27;;;5.90;;
1795;SDS011;895;48.230;11.678;2022-09-06T02:58:24;6.13;;;5.73;;
1795;SDS011;895;48.230;11.678;2022-09-06T03:00:51;6.00;;;5.60;;
1795;SDS011;895;48.230;11.678;2022-09-06T03:03:18;6.60;;;6.00;;
1795;SDS011;895;48.230;11.678;2022-09-06T03:05:47;13.67;;;7.10;;
1795;SDS011;895;48.230;11.678;2022-09-06T03:08:15;6.67;;;6.23;;
1795;SDS011;895;48.230;11.678;2022-09-06T03:10:47;6.33;;;5.83;;
1795;SDS011;895;48.230;11.678;2022-09-06T03:13:14;7.47;;;6.50;;
1795;SDS011;895;48.230;11.678;2022-09-06T03:15:42;8.13;;;6.37;;
1795;SDS011;895;48.230;11.678;2022-09-06T03:18:08;7.43;;;6.80;;
1795;SDS011;895;48.230;11.678;2022-09-06T03:20:35;6.87;;;6.30;;
1795;SDS011;895;48.230;11.678;2022-09-06T03:23:03;6.50;;;6.00;;
1795;SDS011;895;48.230;11.678;2022-09-06T03:25:30;5.60;;;5.20;;
1795;SDS011;895;48.230;11.678;2022-09-06T03:27:56;5.63;;;5.13;;
1795;SDS011;895;48.230;11.678;2022-09-06T03:30:23;6.00;;;5.60;;
1795;SDS011;895;48.230;11.678;2022-09-06T03:32:50;11.63;;;6.47;;
1795;SDS011;895;48.230;11.678;2022-09-06T03:35:16;6.23;;;5.73;;
1795;SDS011;895;48.230;11.678;2022-09-06T03:37:43;7.20;;;6.57;;
1795;SDS011;895;48.230;11.678;2022-09-06T03:40:11;11.20;;;6.93;;
1795;SDS011;895;48.230;11.678;2022-09-06T03:42:38;7.60;;;7.00;;
1795;SDS011;895;48.230;11.678;2022-09-06T03:45:05;6.77;;;6.20;;
1795;SDS011;895;48.230;11.678;2022-09-06T03:47:32;6.53;;;6.03;;
1795;SDS011;895;48.230;11.678;2022-09-06T03:49:59;7.20;;;6.67;;
1795;SDS011;895;48.230;11.678;2022-09-06T03:52:26;8.10;;;7.27;;
1795;SDS011;895;48.230;11.678;2022-09-06T03:54:52;7.43;;;6.93;;
1795;SDS011;895;48.230;11.678;2022-09-06T03:57:20;7.37;;;6.70;;
1795;SDS011;895;48.230;11.678;2022-09-06T03:59:47;7.90;;;7.07;;
1795;SDS011;895;48.230;11.678;2022-09-06T04:02:14;12.97;;;7.53;;
1795;SDS011;895;48.230;11.678;2022-09-06T04:04:40;8.27;;;7.47;;
1795;SDS011;895;48.230;11.678;2022-09-06T04:07:07;8.10;;;6.77;;
1795;SDS011;895;48.230;11.678;2022-09-06T04:09:34;7.07;;;6.57;;
1795;SDS011;895;48.230;11.678;2022-09-06T04:12:01;7.60;;;7.00;;
1795;SDS011;895;48.230;11.678;2022-09-06T04:14:30;7.20;;;6.70;;
1795;SDS011;895;48.230;11.678;2022-09-06T04:16:56;7.27;;;6.73;;
1795;SDS011;895;48.230;11.678;2022-09-06T04:19:23;10.43;;;6.73;;
1795;SDS011;895;48.230;11.678;2022-09-06T04:21:50;8.20;;;7.37;;
1795;SDS011;895;48.230;11.678;2022-09-06T04:24:16;7.57;;;6.93;;
1795;SDS011;895;48.230;11.678;2022-09-06T04:26:43;7.00;;;6.50;;
1795;SDS011;895;48.230;11.678;2022-09-06T04:29:10;8.30;;;7.50;;
1795;SDS011;895;48.230;11.678;2022-09-06T04:31:38;8.60;;;6.50;;
1795;SDS011;895;48.230;11.678;2022-09-06T04:34:04;8.53;;;7.73;;
1795;SDS011;895;48.230;11.678;2022-09-06T04:36:31;7.67;;;7.07;;
1795;SDS011;895;48.230;11.678;2022-09-06T04:38:58;8.40;;;7.60;;
1795;SDS011;895;48.230;11.678;2022-09-06T04:41:24;8.50;;;7.80;;
1795;SDS011;895;48.230;11.678;2022-09-06T04:43:51;7.40;;;6.90;;
1795;SDS011;895;48.230;11.678;2022-09-06T04:46:19;7.40;;;6.77;;
1795;SDS011;895;48.230;11.678;2022-09-06T04:48:49;8.27;;;7.40;;
1795;SDS011;895;48.230;11.678;2022-09-06T04:51:17;8.53;;;7.83;;
1795;SDS011;895;48.230;11.678;2022-09-06T04:53:44;8.87;;;8.17;;
1795;SDS011;895;48.230;11.678;2022-09-06T04:56:12;7.70;;;7.10;;
1795;SDS011;895;48.230;11.678;2022-09-06T04:58:41;7.20;;;6.70;;
1795;SDS011;895;48.230;11.678;2022-09-06T05:01:08;8.83;;;8.03;;
1795;SDS011;895;48.230;11.678;2022-09-06T05:03:35;8.40;;;7.70;;
1795;SDS011;895;48.230;11.678;2022-09-06T05:06:07;8.00;;;7.27;;
1795;SDS011;895;48.230;11.678;2022-09-06T05:08:35;7.50;;;6.80;;
1795;SDS011;895;48.230;11.678;2022-09-06T05:11:03;8.40;;;7.60;;
1795;SDS011;895;48.230;11.678;2022-09-06T05:13:30;7.17;;;6.47;;
1795;SDS011;895;48.230;11.678;2022-09-06T05:15:58;11.77;;;6.70;;
1795;SDS011;895;48.230;11.678;2022-09-06T05:18:25;8.93;;;5.90;;
1795;SDS011;895;48.230;11.678;2022-09-06T05:20:52;11.40;;;7.00;;
1795;SDS011;895;48.230;11.678;2022-09-06T05:23:21;6.93;;;6.33;;
1795;SDS011;895;48.230;11.678;2022-09-06T05:25:48;14.27;;;7.00;;
1795;SDS011;895;48.230;11.678;2022-09-06T05:28:15;7.00;;;6.40;;
1795;SDS011;895;48.230;11.678;2022-09-06T05:30:42;9.40;;;6.20;;
1795;SDS011;895;48.230;11.678;2022-09-06T05:33:10;6.53;;;5.87;;
1795;SDS011;895;48.230;11.678;2022-09-06T05:35:37;6.97;;;6.33;;
1795;SDS011;895;48.230;11.678;2022-09-06T05:38:04;6.17;;;5.73;;
1795;SDS011;895;48.230;11.678;2022-09-06T05:40:32;5.80;;;5.23;;
1795;SDS011;895;48.230;11.678;2022-09-06T05:42:59;6.80;;;5.10;;
1795;SDS011;895;48.230;11.678;2022-09-06T05:45:25;6.00;;;5.63;;
1795;SDS011;895;48.230;11.678;2022-09-06T05:47:52;5.97;;;5.37;;
1795;SDS011;895;48.230;11.678;2022-09-06T05:50:19;6.20;;;5.73;;
1795;SDS011;895;48.230;11.678;2022-09-06T05:52:46;6.10;;;5.50;;
1795;SDS011;895;48.230;11.678;2022-09-06T05:55:12;7.50;;;6.73;;
1795;SDS011;895;48.230;11.678;2022-09-06T05:57:41;5.57;;;5.07;;
1795;SDS011;895;48.230;11.678;2022-09-06T06:00:08;7.37;;;6.63;;
1795;SDS011;895;48.230;11.678;2022-09-06T06:02:36;6.63;;;5.80;;
1795;SDS011;895;48.230;11.678;2022-09-06T06:05:04;7.87;;;7.07;;
1795;SDS011;895;48.230;11.678;2022-09-06T06:07:31;5.90;;;5.50;;
1795;SDS011;895;48.230;11.678;2022-09-06T06:09:58;5.50;;;5.10;;
1795;SDS011;895;48.230;11.678;2022-09-06T06:12:24;5.97;;;5.33;;
1795;SDS011;895;48.230;11.678;2022-09-06T06:14:52;7.50;;;6.43;;
1795;SDS011;895;48.230;11.678;2022-09-06T06:17:19;8.70;;;5.67;;
1795;SDS011;895;48.230;11.678;2022-09-06T06:19:46;6.83;;;6.10;;
1795;SDS011;895;48.230;11.678;2022-09-06T06:22:12;8.03;;;6.70;;
1795;SDS011;895;48.230;11.678;2022-09-06T06:24:39;8.97;;;6.30;;
1795;SDS011;895;48.230;11.678;2022-09-06T06:27:06;7.00;;;6.30;;
1795;SDS011;895;48.230;11.678;2022-09-06T06:29:32;8.80;;;7.17;;
1795;SDS011;895;48.230;11.678;2022-09-06T06:32:01;7.80;;;7.00;;
1795;SDS011;895;48.230;11.678;2022-09-06T06:34:28;6.70;;;6.17;;
1795;SDS011;895;48.230;11.678;2022-09-06T06:36:54;7.60;;;6.90;;
1795;SDS011;895;48.230;11.678;2022-09-06T06:39:22;7.70;;;7.00;;
1795;SDS011;895;48.230;11.678;2022-09-06T06:41:48;9.43;;;6.80;;
1795;SDS011;895;48.230;11.678;2022-09-06T06:44:15;7.30;;;6.60;;
1795;SDS011;895;48.230;11.678;2022-09-06T06:46:42;8.97;;;5.70;;
1795;SDS011;895;48.230;11.678;2022-09-06T06:49:10;8.63;;;7.03;;
1795;SDS011;895;48.230;11.678;2022-09-06T06:51:36;6.30;;;5.87;;
1795;SDS011;895;48.230;11.678;2022-09-06T06:54:03;8.90;;;6.70;;
1795;SDS011;895;48.230;11.678;2022-09-06T06:56:31;8.80;;;5.40;;
1795;SDS011;895;48.230;11.678;2022-09-06T06:58:59;6.63;;;6.03;;
1795;SDS011;895;48.230;11.678;2022-09-06T07:01:28;6.13;;;5.73;;
1795;SDS011;895;48.230;11.678;2022-09-06T07:03:57;5.77;;;5.37;;
1795;SDS011;895;48.230;11.678;2022-09-06T07:06:25;5.10;;;4.70;;
1795;SDS011;895;48.230;11.678;2022-09-06T07:08:53;6.30;;;5.03;;
1795;SDS011;895;48.230;11.678;2022-09-06T07:11:21;6.23;;;5.57;;
1795;SDS011;895;48.230;11.678;2022-09-06T07:13:48;6.63;;;5.87;;
1795;SDS011;895;48.230;11.678;2022-09-06T07:16:17;6.17;;;5.10;;
1795;SDS011;895;48.230;11.678;2022-09-06T07:18:44;5.50;;;5.10;;
1795;SDS011;895;48.230;11.678;2022-09-06T07:21:12;17.50;;;15.80;;
1795;SDS011;895;48.230;11.678;2022-09-06T07:23:41;6.83;;;6.23;;
1795;SDS011;895;48.230;11.678;2022-09-06T07:26:12;13.47;;;12.10;;
1795;SDS011;895;48.230;11.678;2022-09-06T07:28:39;5.63;;;4.97;;
1795;SDS011;895;48.230;11.678;2022-09-06T07:31:06;9.80;;;6.27;;
1795;SDS011;895;48.230;11.678;2022-09-06T07:33:33;4.97;;;4.47;;
1795;SDS011;895;48.230;11.678;2022-09-06T07:36:01;5.73;;;4.27;;
1795;SDS011;895;48.230;11.678;2022-09-06T07:38:29;3.70;;;3.40;;
1795;SDS011;895;48.230;11.678;2022-09-06T07:40:58;3.13;;;2.70;;
1795;SDS011;895;48.230;11.678;2022-09-06T07:43:25;2.83;;;2.63;;
1795;SDS011;895;48.230;11.678;2022-09-06T07:45:57;4.17;;;2.73;;
1795;SDS011;895;48.230;11.678;2022-09-06T07:48:26;3.90;;;3.60;;
1795;SDS011;895;48.230;11.678;2022-09-06T07:50:54;9.30;;;3.63;;
1795;SDS011;895;48.230;11.678;2022-09-06T07:53:21;4.03;;;2.07;;
1795;SDS011;895;48.230;11.678;2022-09-06T07:55:47;10.20;;;9.27;;
1795;SDS011;895;48.230;11.678;2022-09-06T07:58:24;2.80;;;2.20;;
1795;SDS011;895;48.230;11.678;2022-09-06T08:00:51;4.20;;;3.10;;
1795;SDS011;895;48.230;11.678;2022-09-06T08:03:18;3.10;;;2.23;;
1795;SDS011;895;48.230;11.678;2022-09-06T08:05:47;4.73;;;2.77;;
1795;SDS011;895;48.230;11.678;2022-09-06T08:08:14;5.60;;;2.40;;
1795;SDS011;895;48.230;11.678;2022-09-06T08:10:41;2.53;;;1.97;;
1795;SDS011;895;48.230;11.678;2022-09-06T08:13:14;2.97;;;2.77;;
1795;SDS011;895;48.230;11.678;2022-09-06T08:15:42;3.00;;;2.80;;
1795;SDS011;895;48.230;11.678;2022-09-06T08:18:09;2.47;;;1.83;;
1795;SDS011;895;48.230;11.678;2022-09-06T08:20:37;2.50;;;2.20;;
1795;SDS011;895;48.230;11.678;2022-09-06T08:23:07;2.10;;;1.90;;
1795;SDS011;895;48.230;11.678;2022-09-06T08:25:34;5.37;;;2.00;;
1795;SDS011;895;48.230;11.678;2022-09-06T08:28:07;2.20;;;2.00;;
1795;SDS011;895;48.230;11.678;2022-09-06T08:30:34;8.23;;;5.20;;
1795;SDS011;895;48.230;11.678;2022-09-06T08:33:02;2.63;;;2.43;;
1795;SDS011;895;48.230;11.678;2022-09-06T08:35:29;3.90;;;1.57;;
1795;SDS011;895;48.230;11.678;2022-09-06T08:37:56;2.83;;;1.80;;
1795;SDS011;895;48.230;11.678;2022-09-06T08:40:23;5.53;;;1.73;;
1795;SDS011;895;48.230;11.678;2022-09-06T08:42:50;6.80;;;1.93;;
1795;SDS011;895;48.230;11.678;2022-09-06T08:45:17;15.97;;;13.13;;
1795;SDS011;895;48.230;11.678;2022-09-06T08:47:45;6.53;;;2.40;;
1795;SDS011;895;48.230;11.678;2022-09-06T08:50:15;1.80;;;1.70;;
1795;SDS011;895;48.230;11.678;2022-09-06T08:52:49;6.10;;;2.00;;
1795;SDS011;895;48.230;11.678;2022-09-06T08:55:31;4.40;;;1.83;;
1795;SDS011;895;48.230;11.678;2022-09-06T08:58:12;8.93;;;8.03;;
1795;SDS011;895;48.230;11.678;2022-09-06T09:00:51;6.53;;;4.37;;
1795;SDS011;895;48.230;11.678;2022-09-06T09:03:22;3.27;;;2.40;;
1795;SDS011;895;48.230;11.678;2022-09-06T09:05:56;6.77;;;6.10;;
1795;SDS011;895;48.230;11.678;2022-09-06T09:08:24;3.50;;;3.10;;
1795;SDS011;895;48.230;11.678;2022-09-06T09:10:56;2.40;;;2.10;;
1795;SDS011;895;48.230;11.678;2022-09-06T09:13:26;4.17;;;2.27;;
1795;SDS011;895;48.230;11.678;2022-09-06T09:15:58;4.37;;;2.43;;
1795;SDS011;895;48.230;11.678;2022-09-06T09:18:25;3.87;;;2.27;;
1795;SDS011;895;48.230;11.678;2022-09-06T09:20:57;3.17;;;1.90;;
1795;SDS011;895;48.230;11.678;2022-09-06T09:23:24;4.07;;;2.17;;
1795;SDS011;895;48.230;11.678;2022-09-06T09:25:52;7.00;;;3.00;;
1795;SDS011;895;48.230;11.678;2022-09-06T09:28:23;5.83;;;2.67;;
1795;SDS011;895;48.230;11.678;2022-09-06T09:30:51;3.27;;;2.97;;
1795;SDS011;895;48.230;11.678;2022-09-06T09:33:23;3.03;;;2.73;;
1795;SDS011;895;48.230;11.678;2022-09-06T09:35:53;2.17;;;1.80;;
1795;SDS011;895;48.230;11.678;2022-09-06T09:38:23;2.33;;;1.33;;
1795;SDS011;895;48.230;11.678;2022-09-06T09:40:52;3.90;;;2.00;;
1795;SDS011;895;48.230;11.678;2022-09-06T09:43:21;1.73;;;1.60;;
1795;SDS011;895;48.230;11.678;2022-09-06T09:46:06;1.20;;;0.90;;
1795;SDS011;895;48.230;11.678;2022-09-06T09:48:34;1.63;;;1.10;;
1795;SDS011;895;48.230;11.678;2022-09-06T09:51:15;1.70;;;1.37;;
1795;SDS011;895;48.230;11.678;2022-09-06T09:53:52;1.53;;;0.90;;
1795;SDS011;895;48.230;11.678;2022-09-06T09:56:23;1.63;;;0.97;;
1795;SDS011;895;48.230;11.678;2022-09-06T09:59:14;2.33;;;1.17;;
1795;SDS011;895;48.230;11.678;2022-09-06T10:01:45;3.83;;;1.40;;
1795;SDS011;895;48.230;11.678;2022-09-06T10:04:16;2.33;;;2.13;;
1795;SDS011;895;48.230;11.678;2022-09-06T10:06:45;1.00;;;0.90;;
1795;SDS011;895;48.230;11.678;2022-09-06T10:09:17;1.13;;;1.00;;
1795;SDS011;895;48.230;11.678;2022-09-06T10:11:52;3.23;;;1.80;;
1795;SDS011;895;48.230;11.678;2022-09-06T10:14:24;2.60;;;1.23;;
1795;SDS011;895;48.230;11.678;2022-09-06T10:17:05;3.00;;;1.30;;
1795;SDS011;895;48.230;11.678;2022-09-06T10:19:42;2.40;;;1.30;;
1795;SDS011;895;48.230;11.678;2022-09-06T10:22:22;1.67;;;0.90;;
1795;SDS011;895;48.230;11.678;2022-09-06T10:28:01;2.53;;;2.33;;
1795;SDS011;895;48.230;11.678;2022-09-06T10:30:43;4.50;;;1.03;;
1795;SDS011;895;48.230;11.678;2022-09-06T10:33:22;2.27;;;1.07;;
1795;SDS011;895;48.230;11.678;2022-09-06T10:35:52;1.10;;;0.97;;
1795;SDS011;895;48.230;11.678;2022-09-06T10:38:25;1.15;;;0.90;;
1795;SDS011;895;48.230;11.678;2022-09-06T10:41:08;1.45;;;1.02;;
1795;SDS011;895;48.230;11.678;2022-09-06T10:44:01;1.08;;;0.98;;
1795;SDS011;895;48.230;11.678;2022-09-06T10:46:35;1.95;;;1.30;;
1795;SDS011;895;48.230;11.678;2022-09-06T10:49:02;1.40;;;1.10;;
1795;SDS011;895;48.230;11.678;2022-09-06T10:51:33;2.33;;;2.22;;
1795;SDS011;895;48.230;11.678;2022-09-06T10:54:04;2.95;;;2.13;;
1795;SDS011;895;48.230;11.678;2022-09-06T10:56:36;1.40;;;0.98;;
1795;SDS011;895;48.230;11.678;2022-09-06T10:59:12;1.10;;;1.00;;
1795;SDS011;895;48.230;11.678;2022-09-06T11:01:56;1.17;;;0.88;;
1795;SDS011;895;48.230;11.678;2022-09-06T11:04:34;2.78;;;1.17;;
1795;SDS011;895;48.230;11.678;2022-09-06T11:07:03;4.90;;;1.25;;
1795;SDS011;895;48.230;11.678;2022-09-06T11:09:37;1.38;;;1.27;;
1795;SDS011;895;48.230;11.678;2022-09-06T11:12:07;2.42;;;0.95;;
1795;SDS011;895;48.230;11.678;2022-09-06T11:14:38;3.65;;;1.20;;
1795;SDS011;895;48.230;11.678;2022-09-06T11:17:07;3.80;;;1.08;;
1795;SDS011;895;48.230;11.678;2022-09-06T11:19:39;2.20;;;1.42;;
1795;SDS011;895;48.230;11.678;2022-09-06T11:22:18;2.08;;;1.13;;
1795;SDS011;895;48.230;11.678;2022-09-06T11:25:14;1.20;;;1.10;;
1795;SDS011;895;48.230;11.678;2022-09-06T11:28:14;1.10;;;0.82;;
1795;SDS011;895;48.230;11.678;2022-09-06T11:30:47;1.30;;;1.10;;
1795;SDS011;895;48.230;11.678;2022-09-06T11:33:20;3.75;;;1.02;;
1795;SDS011;895;48.230;11.678;2022-09-06T11:35:50;1.50;;;1.23;;
1795;SDS011;895;48.230;11.678;2022-09-06T11:38:20;4.20;;;1.00;;
1795;SDS011;895;48.230;11.678;2022-09-06T11:40:52;1.75;;;1.58;;
1795;SDS011;895;48.230;11.678;2022-09-06T11:43:40;1.70;;;1.20;;
1795;SDS011;895;48.230;11.678;2022-09-06T11:46:10;2.28;;;1.23;;
1795;SDS011;895;48.230;11.678;2022-09-06T11:49:33;3.30;;;3.03;;
1795;SDS011;895;48.230;11.678;2022-09-06T11:55:11;3.70;;;1.20;;
1795;SDS011;895;48.230;11.678;2022-09-06T11:57:41;1.88;;;0.90;;
1795;SDS011;895;48.230;11.678;2022-09-06T12:00:09;2.20;;;1.02;;
1795;SDS011;895;48.230;11.678;2022-09-06T12:02:44;2.63;;;2.53;;
1795;SDS011;895;48.230;11.678;2022-09-06T12:05:14;4.20;;;2.28;;
1795;SDS011;895;48.230;11.678;2022-09-06T12:11:00;1.55;;;1.08;;
1795;SDS011;895;48.230;11.678;2022-09-06T12:13:37;1.27;;;1.08;;
1795;SDS011;895;48.230;11.678;2022-09-06T12:16:09;2.30;;;1.42;;
1795;SDS011;895;48.230;11.678;2022-09-06T12:21:37;2.78;;;1.30;;
1795;SDS011;895;48.230;11.678;2022-09-06T12:27:18;4.07;;;1.33;;
1795;SDS011;895;48.230;11.678;2022-09-06T12:29:48;2.53;;;1.05;;
1795;SDS011;895;48.230;11.678;2022-09-06T12:32:19;4.85;;;1.40;;
1795;SDS011;895;48.230;11.678;2022-09-06T12:34:49;5.82;;;1.33;;
1795;SDS011;895;48.230;11.678;2022-09-06T12:37:28;6.85;;;1.42;;
1795;SDS011;895;48.230;11.678;2022-09-06T12:39:57;3.50;;;1.30;;
1795;SDS011;895;48.230;11.678;2022-09-06T12:42:24;2.40;;;1.27;;
1795;SDS011;895;48.230;11.678;2022-09-06T12:44:51;4.25;;;1.73;;
1795;SDS011;895;48.230;11.678;2022-09-06T12:47:22;2.80;;;1.27;;
1795;SDS011;895;48.230;11.678;2022-09-06T12:59:18;4.05;;;1.40;;
1795;SDS011;895;48.230;11.678;2022-09-06T13:02:50;4.30;;;1.38;;
1795;SDS011;895;48.230;11.678;2022-09-06T13:05:26;3.35;;;1.48;;
1795;SDS011;895;48.230;11.678;2022-09-06T13:07:54;4.45;;;1.52;;
1795;SDS011;895;48.230;11.678;2022-09-06T13:10:24;7.50;;;2.13;;
1795;SDS011;895;48.230;11.678;2022-09-06T13:12:53;4.55;;;1.30;;
1795;SDS011;895;48.230;11.678;2022-09-06T13:15:22;5.90;;;1.67;;
1795;SDS011;895;48.230;11.678;2022-09-06T13:17:51;5.22;;;2.00;;
1795;SDS011;895;48.230;11.678;2022-09-06T13:20:21;4.13;;;1.65;;
1795;SDS011;895;48.230;11.678;2022-09-06T13:22:51;2.25;;;1.48;;
1795;SDS011;895;48.230;11.678;2022-09-06T13:25:23;6.28;;;1.73;;
1795;SDS011;895;48.230;11.678;2022-09-06T13:27:51;2.78;;;1.85;;
1795;SDS011;895;48.230;11.678;2022-09-06T13:30:32;8.07;;;1.95;;
1795;SDS011;895;48.230;11.678;2022-09-06T13:33:01;3.08;;;1.75;;
1795;SDS011;895;48.230;11.678;2022-09-06T13:35:29;4.25;;;1.50;;
1795;SDS011;895;48.230;11.678;2022-09-06T13:40:44;6.60;;;1.92;;
1795;SDS011;895;48.230;11.678;2022-09-06T13:43:13;3.45;;;1.80;;
1795;SDS011;895;48.230;11.678;2022-09-06T13:45:39;3.35;;;2.00;;
1795;SDS011;895;48.230;11.678;2022-09-06T13:48:06;3.35;;;1.80;;
1795;SDS011;895;48.230;11.678;2022-09-06T13:50:33;4.07;;;2.25;;
1795;SDS011;895;48.230;11.678;2022-09-06T13:53:00;2.83;;;1.50;;
1795;SDS011;895;48.230;11.678;2022-09-06T13:55:29;3.97;;;1.67;;
1795;SDS011;895;48.230;11.678;2022-09-06T13:57:57;7.07;;;1.88;;
1795;SDS011;895;48.230;11.678;2022-09-06T14:00:25;4.88;;;1.60;;
1795;SDS011;895;48.230;11.678;2022-09-06T14:02:53;5.22;;;1.83;;
1795;SDS011;895;48.230;11.678;2022-09-06T14:05:20;9.27;;;2.30;;
1795;SDS011;895;48.230;11.678;2022-09-06T14:07:47;6.15;;;3.05;;
1795;SDS011;895;48.230;11.678;2022-09-06T14:10:13;3.75;;;3.00;;
1795;SDS011;895;48.230;11.678;2022-09-06T14:12:40;3.70;;;2.50;;
1795;SDS011;895;48.230;11.678;2022-09-06T14:15:07;9.98;;;2.50;;
1795;SDS011;895;48.230;11.678;2022-09-06T14:17:35;8.35;;;2.40;;
1795;SDS011;895;48.230;11.678;2022-09-06T14:20:03;7.47;;;2.58;;
1795;SDS011;895;48.230;11.678;2022-09-06T14:22:30;7.70;;;2.80;;
1795;SDS011;895;48.230;11.678;2022-09-06T14:24:57;4.88;;;2.30;;
1795;SDS011;895;48.230;11.678;2022-09-06T14:27:23;10.23;;;2.58;;
1795;SDS011;895;48.230;11.678;2022-09-06T14:29:50;6.40;;;2.78;;
1795;SDS011;895;48.230;11.678;2022-09-06T14:32:17;12.20;;;2.20;;
1795;SDS011;895;48.230;11.678;2022-09-06T14:34:45;5.82;;;2.63;;
1795;SDS011;895;48.230;11.678;2022-09-06T14:37:12;4.70;;;2.38;;
1795;SDS011;895;48.230;11.678;2022-09-06T14:39:39;7.10;;;3.00;;
1795;SDS011;895;48.230;11.678;2022-09-06T14:42:05;5.90;;;1.85;;
1795;SDS011;895;48.230;11.678;2022-09-06T14:44:32;5.00;;;2.00;;
1795;SDS011;895;48.230;11.678;2022-09-06T14:46:59;5.68;;;2.20;;
1795;SDS011;895;48.230;11.678;2022-09-06T14:49:26;7.20;;;1.92;;
1795;SDS011;895;48.230;11.678;2022-09-06T14:51:54;5.00;;;2.38;;
1795;SDS011;895;48.230;11.678;2022-09-06T14:54:20;5.38;;;2.67;;
1795;SDS011;895;48.230;11.678;2022-09-06T14:56:47;4.40;;;2.10;;
1795;SDS011;895;48.230;11.678;2022-09-06T14:59:14;4.65;;;2.13;;
1795;SDS011;895;48.230;11.678;2022-09-06T15:01:41;5.25;;;1.88;;
1795;SDS011;895;48.230;11.678;2022-09-06T15:04:08;3.28;;;1.70;;
1795;SDS011;895;48.230;11.678;2022-09-06T15:06:36;5.25;;;1.73;;
1795;SDS011;895;48.230;11.678;2022-09-06T15:09:06;7.35;;;1.83;;
1795;SDS011;895;48.230;11.678;2022-09-06T15:11:35;3.63;;;1.90;;
1795;SDS011;895;48.230;11.678;2022-09-06T15:14:04;3.33;;;2.03;;
1795;SDS011;895;48.230;11.678;2022-09-06T15:16:33;4.40;;;1.70;;
1795;SDS011;895;48.230;11.678;2022-09-06T15:19:00;8.27;;;2.65;;
1795;SDS011;895;48.230;11.678;2022-09-06T15:21:27;5.95;;;2.40;;
1795;SDS011;895;48.230;11.678;2022-09-06T15:23:54;10.05;;;2.80;;
1795;SDS011;895;48.230;11.678;2022-09-06T15:26:23;7.35;;;2.17;;
1795;SDS011;895;48.230;11.678;2022-09-06T15:28:50;4.70;;;2.97;;
1795;SDS011;895;48.230;11.678;2022-09-06T15:31:17;3.30;;;1.77;;
1795;SDS011;895;48.230;11.678;2022-09-06T15:33:45;5.57;;;2.43;;
1795;SDS011;895;48.230;11.678;2022-09-06T15:36:12;6.30;;;2.10;;
1795;SDS011;895;48.230;11.678;2022-09-06T15:38:41;5.53;;;2.17;;
1795;SDS011;895;48.230;11.678;2022-09-06T15:41:10;8.40;;;2.93;;
1795;SDS011;895;48.230;11.678;2022-09-06T15:43:40;14.83;;;2.60;;
1795;SDS011;895;48.230;11.678;2022-09-06T15:46:08;6.87;;;3.00;;
1795;SDS011;895;48.230;11.678;2022-09-06T15:48:38;6.77;;;2.67;;
1795;SDS011;895;48.230;11.678;2022-09-06T15:51:06;9.70;;;2.90;;
1795;SDS011;895;48.230;11.678;2022-09-06T15:53:33;4.00;;;2.20;;
1795;SDS011;895;48.230;11.678;2022-09-06T15:55:59;4.40;;;2.43;;
1795;SDS011;895;48.230;11.678;2022-09-06T15:58:28;5.33;;;2.10;;
1795;SDS011;895;48.230;11.678;2022-09-06T16:01:00;11.07;;;2.10;;
1795;SDS011;895;48.230;11.678;2022-09-06T16:03:28;8.00;;;2.77;;
1795;SDS011;895;48.230;11.678;2022-09-06T16:05:59;6.20;;;2.30;;
1795;SDS011;895;48.230;11.678;2022-09-06T16:08:27;4.63;;;1.90;;